createdAt,value
2019-02-14T00:01:13.390Z,98.70
2019-02-14T00:03:44.426Z,98.60
2019-02-14T00:06:14.983Z,98.70
2019-02-14T00:08:45.757Z,98.70
2019-02-14T00:11:16.349Z,98.60
2019-02-14T00:13:47.037Z,98.60
2019-02-14T00:16:18.111Z,98.60
2019-02-14T00:18:48.967Z,98.50
2019-02-14T00:21:19.635Z,98.50
2019-02-14T00:23:50.717Z,98.40
2019-02-14T00:26:21.563Z,98.50
2019-02-14T00:28:52.431Z,98.50
2019-02-14T00:31:23.592Z,98.40
2019-02-14T00:33:54.322Z,98.40
2019-02-14T00:36:24.926Z,98.50
2019-02-14T00:38:55.593Z,98.50
2019-02-14T00:41:26.666Z,98.50
2019-02-14T00:43:57.308Z,98.40
2019-02-14T00:46:27.878Z,98.50
2019-02-14T00:48:58.765Z,98.40
2019-02-14T00:51:29.301Z,98.50
2019-02-14T00:54:00.055Z,98.40
2019-02-14T00:56:30.752Z,98.40
2019-02-14T00:59:04.180Z,98.40
2019-02-14T01:01:34.613Z,98.30
2019-02-14T01:04:05.644Z,98.30
2019-02-14T01:06:36.831Z,98.40
2019-02-14T01:09:07.581Z,98.30
2019-02-14T01:11:38.273Z,98.40
2019-02-14T01:14:08.939Z,98.40
2019-02-14T01:16:39.528Z,98.40
2019-02-14T01:19:10.200Z,98.50
2019-02-14T01:21:40.785Z,98.40
2019-02-14T01:24:11.676Z,98.50
2019-02-14T01:26:42.258Z,98.40
2019-02-14T01:29:12.980Z,98.50
2019-02-14T01:31:43.437Z,98.50
2019-02-14T01:34:14.040Z,98.40
2019-02-14T01:36:44.674Z,98.30
2019-02-14T01:39:15.248Z,98.40
2019-02-14T01:41:46.226Z,98.30
2019-02-14T01:44:16.936Z,98.40
2019-02-14T01:46:47.496Z,98.40
2019-02-14T01:49:18.150Z,98.30
2019-02-14T01:51:48.820Z,98.30
2019-02-14T01:54:19.254Z,98.30
2019-02-14T01:56:50.217Z,98.30
2019-02-14T01:59:21.016Z,98.40
2019-02-14T02:01:51.557Z,98.40
2019-02-14T02:04:22.526Z,98.30
2019-02-14T02:06:53.274Z,98.30
2019-02-14T02:09:23.841Z,98.20
2019-02-14T02:11:54.423Z,98.40
2019-02-14T02:14:25.212Z,98.30
2019-02-14T02:16:55.999Z,98.30
2019-02-14T02:19:27.119Z,98.50
2019-02-14T02:21:57.783Z,98.40
2019-02-14T02:24:32.092Z,98.40
2019-02-14T02:27:03.439Z,98.40
2019-02-14T02:29:34.110Z,98.40
2019-02-14T02:32:05.093Z,98.50
2019-02-14T02:34:36.039Z,98.40
2019-02-14T02:37:06.643Z,98.50
2019-02-14T02:39:38.006Z,98.40
2019-02-14T02:42:08.887Z,98.40
2019-02-14T02:44:39.615Z,98.40
2019-02-14T02:47:10.745Z,98.40
2019-02-14T02:49:41.593Z,98.40
2019-02-14T02:52:12.319Z,98.20
2019-02-14T02:54:43.330Z,98.40
2019-02-14T02:57:13.987Z,98.40
2019-02-14T02:59:44.567Z,98.50
2019-02-14T03:02:14.975Z,98.50
2019-02-14T03:04:45.509Z,98.40
2019-02-14T03:07:16.100Z,98.50
2019-02-14T03:09:47.126Z,98.40
2019-02-14T03:12:17.947Z,98.50
2019-02-14T03:14:51.103Z,98.40
2019-02-14T03:17:23.569Z,98.50
2019-02-14T03:19:54.971Z,98.50
2019-02-14T03:22:25.769Z,98.40
2019-02-14T03:24:56.366Z,98.50
2019-02-14T03:27:26.775Z,98.80
2019-02-14T03:29:57.702Z,98.50
2019-02-14T03:32:31.507Z,98.50
2019-02-14T03:35:02.280Z,98.40
2019-02-14T03:37:33.517Z,98.40
2019-02-14T03:40:05.044Z,98.50
2019-02-14T03:42:35.857Z,98.40
2019-02-14T03:45:20.648Z,98.50
2019-02-14T03:47:51.774Z,98.50
2019-02-14T03:50:22.234Z,98.60
2019-02-14T03:52:52.764Z,98.50
2019-02-14T03:55:23.437Z,98.50
2019-02-14T03:57:54.301Z,98.60
2019-02-14T04:00:24.806Z,98.50
2019-02-14T04:02:55.483Z,98.60
2019-02-14T04:05:26.147Z,98.60
2019-02-14T04:07:56.787Z,98.70
2019-02-14T04:10:27.377Z,98.60
2019-02-14T04:12:58.152Z,98.60
2019-02-14T04:15:29.103Z,98.50
2019-02-14T04:17:59.850Z,98.60
2019-02-14T04:20:30.329Z,98.60
2019-02-14T04:23:00.907Z,98.50
2019-02-14T04:25:32.070Z,98.80
2019-02-14T04:28:03.319Z,98.60
2019-02-14T04:30:34.100Z,98.60
2019-02-14T04:33:04.990Z,98.60
2019-02-14T04:35:35.797Z,98.60
2019-02-14T04:38:06.484Z,98.60
2019-02-14T04:40:37.254Z,98.80
2019-02-14T04:43:07.843Z,98.70
2019-02-14T04:45:38.507Z,98.70
2019-02-14T04:48:09.006Z,98.70
2019-02-14T04:50:40.125Z,98.70
2019-02-14T04:53:10.885Z,98.80
2019-02-14T04:55:41.993Z,98.70
2019-02-14T04:58:12.715Z,98.80
2019-02-14T05:00:43.197Z,98.80
2019-02-14T05:03:13.807Z,98.80
2019-02-14T05:05:44.722Z,98.80
2019-02-14T05:08:15.289Z,98.80
2019-02-14T05:10:45.949Z,98.70
2019-02-14T05:13:16.455Z,98.70
2019-02-14T05:15:47.450Z,98.80
2019-02-14T05:18:17.722Z,98.70
2019-02-14T05:20:48.279Z,98.70
2019-02-14T05:23:18.915Z,98.80
2019-02-14T05:25:49.872Z,98.90
2019-02-14T05:28:20.543Z,98.90
2019-02-14T05:30:51.005Z,98.90
2019-02-14T05:33:21.614Z,99.00
2019-02-14T05:35:52.710Z,98.70
2019-02-14T05:38:23.569Z,99.00
2019-02-14T05:40:54.101Z,99.00
2019-02-14T05:43:25.115Z,99.00
2019-02-14T05:45:55.789Z,99.00
2019-02-14T05:48:26.454Z,99.00
2019-02-14T05:50:56.947Z,99.00
2019-02-14T05:53:27.708Z,99.00
2019-02-14T05:55:58.737Z,99.00
2019-02-14T05:58:30.313Z,99.00
2019-02-14T06:01:01.593Z,99.10
2019-02-14T06:03:32.272Z,99.10
2019-02-14T06:06:02.901Z,99.00
2019-02-14T06:08:33.595Z,99.00
2019-02-14T06:11:04.168Z,99.00
2019-02-14T06:13:34.811Z,99.10
2019-02-14T06:16:05.562Z,99.30
2019-02-14T06:18:36.132Z,99.40
2019-02-14T06:21:06.612Z,99.40
2019-02-14T06:23:37.080Z,99.40
2019-02-14T06:26:08.200Z,99.40
2019-02-14T06:28:39.345Z,99.60
2019-02-14T06:31:09.939Z,99.30
2019-02-14T06:33:40.336Z,99.30
2019-02-14T06:36:10.948Z,99.30
2019-02-14T06:38:41.448Z,99.40
2019-02-14T06:41:11.900Z,99.40
2019-02-14T06:43:43.020Z,99.40
2019-02-14T06:46:13.676Z,99.40
2019-02-14T06:48:44.702Z,99.30
2019-02-14T06:51:15.350Z,99.30
2019-02-14T06:53:45.884Z,99.30
2019-02-14T06:56:16.554Z,99.30
2019-02-14T06:58:47.428Z,99.30
2019-02-14T07:01:18.224Z,99.30
2019-02-14T07:03:49.122Z,99.40
2019-02-14T07:06:19.920Z,99.50
2019-02-14T07:08:50.490Z,99.60
2019-02-14T07:11:21.268Z,99.50
2019-02-14T07:13:51.948Z,99.50
2019-02-14T07:16:22.656Z,99.50
2019-02-14T07:18:53.245Z,99.40
2019-02-14T07:21:23.754Z,99.50
2019-02-14T07:23:54.520Z,99.50
2019-02-14T07:26:25.212Z,99.50
2019-02-14T07:28:55.786Z,99.50
2019-02-14T07:31:27.169Z,99.50
2019-02-14T07:33:57.828Z,99.60
2019-02-14T07:36:28.254Z,99.60
2019-02-14T07:38:59.053Z,99.60
2019-02-14T07:41:31.006Z,99.60
2019-02-14T07:44:02.195Z,99.50
2019-02-14T07:46:33.317Z,99.50
2019-02-14T07:49:04.146Z,99.50
2019-02-14T07:51:34.601Z,99.60
2019-02-14T07:54:05.227Z,99.70
2019-02-14T07:56:35.689Z,99.70
2019-02-14T07:59:06.235Z,99.70
2019-02-14T08:01:37.198Z,99.70
2019-02-14T08:04:07.902Z,99.60
2019-02-14T08:06:38.667Z,99.60
2019-02-14T08:09:09.243Z,99.60
2019-02-14T08:11:40.341Z,99.60
2019-02-14T08:14:10.904Z,99.50
2019-02-14T08:16:41.902Z,99.40
2019-02-14T08:19:12.515Z,99.40
2019-02-14T08:21:43.121Z,99.40
2019-02-14T08:24:13.593Z,99.40
2019-02-14T08:26:44.146Z,99.40
2019-02-14T08:29:14.791Z,99.40
2019-02-14T08:31:45.721Z,99.30
2019-02-14T08:34:16.635Z,99.30
2019-02-14T08:36:47.189Z,99.20
2019-02-14T08:39:18.099Z,99.30
2019-02-14T08:41:48.693Z,99.20
2019-02-14T08:44:19.185Z,99.20
2019-02-14T08:46:50.321Z,99.20
2019-02-14T08:49:21.060Z,99.30
2019-02-14T08:51:51.943Z,99.20
2019-02-14T08:54:22.537Z,99.20
2019-02-14T08:56:53.032Z,99.20
2019-02-14T08:59:24.176Z,99.20
2019-02-14T09:01:57.450Z,99.20
2019-02-14T09:04:28.025Z,99.10
2019-02-14T09:06:58.697Z,99.20
2019-02-14T09:09:29.178Z,99.20
2019-02-14T09:11:59.775Z,99.10
2019-02-14T09:14:30.547Z,99.40
2019-02-14T09:17:01.186Z,99.20
2019-02-14T09:19:32.084Z,99.10
2019-02-14T09:22:03.098Z,99.00
2019-02-14T09:24:33.843Z,98.90
2019-02-14T09:27:04.698Z,98.90
2019-02-14T09:29:35.252Z,98.80
2019-02-14T09:32:06.143Z,98.80
2019-02-14T09:34:36.793Z,98.80
2019-02-14T09:37:07.714Z,98.70
2019-02-14T09:39:40.900Z,98.60
2019-02-14T09:42:11.164Z,98.60
2019-02-14T09:44:42.312Z,98.60
2019-02-14T09:47:13.122Z,98.50
2019-02-14T09:49:43.588Z,98.60
2019-02-14T09:52:14.700Z,98.60
2019-02-14T09:54:45.408Z,98.40
2019-02-14T09:57:15.991Z,98.40
2019-02-14T09:59:47.166Z,98.30
2019-02-14T10:02:18.262Z,98.30
2019-02-14T10:04:49.018Z,98.50
2019-02-14T10:07:19.697Z,98.40
2019-02-14T10:09:50.398Z,98.40
2019-02-14T10:12:20.956Z,98.40
2019-02-14T10:14:51.643Z,98.40
2019-02-14T10:17:22.519Z,98.50
2019-02-14T10:19:53.210Z,98.40
2019-02-14T10:22:24.019Z,98.40
2019-02-14T10:24:54.672Z,98.50
2019-02-14T10:27:25.686Z,98.50
2019-02-14T10:29:56.380Z,98.30
2019-02-14T10:32:26.988Z,98.50
2019-02-14T10:34:57.642Z,98.40
2019-02-14T10:37:28.134Z,98.50
2019-02-14T10:39:58.825Z,98.70
2019-02-14T10:42:29.781Z,98.50
2019-02-14T10:45:00.433Z,98.60
2019-02-14T10:47:31.127Z,98.70
2019-02-14T10:50:01.794Z,98.60
2019-02-14T10:52:32.712Z,98.60
2019-02-14T10:55:06.501Z,98.60
2019-02-14T10:57:37.485Z,98.60
2019-02-14T11:00:16.274Z,98.60
2019-02-14T11:02:47.444Z,98.60
2019-02-14T11:05:18.444Z,98.70
2019-02-14T11:07:49.134Z,98.70
2019-02-14T11:10:19.671Z,98.70
2019-02-14T11:12:50.676Z,98.70
2019-02-14T11:15:25.832Z,98.70
2019-02-14T11:17:56.857Z,98.50
2019-02-14T11:20:27.710Z,98.70
2019-02-14T11:22:58.149Z,98.70
2019-02-14T11:25:34.540Z,99.00
2019-02-14T11:28:05.524Z,98.70
2019-02-14T11:30:36.329Z,98.90
2019-02-14T11:33:07.011Z,98.80
2019-02-14T11:35:37.575Z,98.90
2019-02-14T11:38:08.063Z,98.90
2019-02-14T11:40:38.632Z,98.80
2019-02-14T11:43:09.505Z,98.60
2019-02-14T11:45:40.055Z,98.50
2019-02-14T11:48:10.446Z,98.60
2019-02-14T11:50:41.502Z,98.50
2019-02-14T11:53:14.257Z,98.60
2019-02-14T11:55:44.660Z,98.50
2019-02-14T11:58:15.305Z,98.60
2019-02-14T12:00:46.005Z,98.60
2019-02-14T12:03:16.540Z,98.50
2019-02-14T12:05:47.273Z,98.50
2019-02-14T12:08:18.051Z,98.40
2019-02-14T12:10:48.627Z,98.50
2019-02-14T12:13:19.347Z,98.60
2019-02-14T12:15:50.048Z,98.40
2019-02-14T12:18:20.729Z,98.50
2019-02-14T12:20:51.313Z,98.50
2019-02-14T12:23:21.803Z,98.40
2019-02-14T12:25:52.900Z,98.50
2019-02-14T12:28:23.409Z,98.30
2019-02-14T12:30:53.984Z,98.30
2019-02-14T12:33:24.828Z,98.40
2019-02-14T12:35:55.598Z,98.40
2019-02-14T12:38:26.780Z,98.30
2019-02-14T12:40:57.578Z,98.30
2019-02-14T12:43:28.299Z,98.30
2019-02-14T12:45:59.413Z,98.20
2019-02-14T12:48:30.143Z,98.00
2019-02-14T12:51:01.124Z,98.40
2019-02-14T12:53:31.812Z,98.00
2019-02-14T12:56:02.393Z,98.20
2019-02-14T12:58:32.770Z,98.10
2019-02-14T13:01:03.577Z,98.20
2019-02-14T13:03:34.466Z,97.80
2019-02-14T13:06:05.136Z,98.10
2019-02-14T13:08:35.798Z,98.00
2019-02-14T13:11:06.724Z,98.00
2019-02-14T13:13:37.535Z,98.00
2019-02-14T13:16:08.233Z,98.00
2019-02-14T13:18:38.833Z,98.00
2019-02-14T13:21:09.625Z,98.00
2019-02-14T13:23:40.213Z,97.90
2019-02-14T13:26:10.756Z,97.90
2019-02-14T13:28:41.962Z,97.70
2019-02-14T13:31:12.525Z,97.90
2019-02-14T13:33:43.637Z,97.80
2019-02-14T13:36:14.340Z,97.80
2019-02-14T13:38:45.012Z,97.90
2019-02-14T13:41:16.137Z,97.80
2019-02-14T13:43:46.819Z,97.80
2019-02-14T13:46:17.423Z,97.80
2019-02-14T13:48:48.006Z,97.70
2019-02-14T13:51:18.707Z,97.60
2019-02-14T13:53:49.457Z,97.50
2019-02-14T13:56:20.241Z,97.50
2019-02-14T13:58:51.157Z,97.40
2019-02-14T14:01:21.798Z,97.50
2019-02-14T14:03:52.562Z,97.60
2019-02-14T14:06:25.390Z,97.60
2019-02-14T14:08:55.359Z,97.70
2019-02-14T14:11:25.997Z,97.60
2019-02-14T14:13:56.594Z,97.40
2019-02-14T14:16:27.368Z,97.40
2019-02-14T14:19:06.195Z,97.40
2019-02-14T14:21:30.475Z,97.60
2019-02-14T14:24:01.271Z,97.50
2019-02-14T14:26:31.826Z,97.50
2019-02-14T14:29:02.569Z,97.30
2019-02-14T14:31:33.127Z,97.50
2019-02-14T14:34:03.840Z,97.50
2019-02-14T14:36:34.635Z,97.50
2019-02-14T14:39:06.145Z,97.50
2019-02-14T14:41:36.884Z,97.40
2019-02-14T14:44:15.068Z,97.30
2019-02-14T14:46:45.743Z,97.20
2019-02-14T14:49:16.127Z,97.60
2019-02-14T14:51:46.619Z,97.60
2019-02-14T14:54:17.686Z,97.50
2019-02-14T14:56:48.664Z,97.40
2019-02-14T14:59:19.307Z,97.60
2019-02-14T15:01:49.983Z,97.30
2019-02-14T15:04:20.401Z,97.40
2019-02-14T15:06:51.087Z,97.40
2019-02-14T15:09:21.589Z,97.50
2019-02-14T15:11:52.253Z,97.60
2019-02-14T15:14:23.222Z,97.60
2019-02-14T15:16:54.014Z,97.90
2019-02-14T15:19:24.890Z,97.60
2019-02-14T15:21:55.748Z,97.60
2019-02-14T15:24:26.764Z,97.70
2019-02-14T15:26:57.802Z,97.70
2019-02-14T15:29:28.754Z,97.60
2019-02-14T15:31:59.611Z,97.80
2019-02-14T15:34:30.624Z,97.80
2019-02-14T15:37:01.418Z,97.90
2019-02-14T15:39:32.003Z,97.90
2019-02-14T15:42:02.607Z,97.90
2019-02-14T15:44:33.236Z,97.90
2019-02-14T15:47:04.089Z,98.00
2019-02-14T15:49:34.989Z,98.00
2019-02-14T15:52:10.123Z,98.00
2019-02-14T15:54:42.698Z,98.00
2019-02-14T15:57:13.445Z,98.20
2019-02-14T15:59:45.489Z,98.00
2019-02-14T16:02:17.966Z,98.10
2019-02-14T16:04:50.646Z,98.30
2019-02-14T16:07:20.791Z,98.10
2019-02-14T16:09:52.225Z,98.20
2019-02-14T16:12:23.079Z,98.10
2019-02-14T16:14:53.763Z,98.20
2019-02-14T16:17:25.030Z,98.10
2019-02-14T16:19:57.541Z,98.00
2019-02-14T16:22:29.980Z,98.20
2019-02-14T16:25:00.318Z,98.20
2019-02-14T16:27:31.107Z,98.20
2019-02-14T16:30:01.776Z,98.30
2019-02-14T16:32:32.860Z,98.20
2019-02-14T16:35:05.461Z,98.20
2019-02-14T16:37:36.204Z,98.20
2019-02-14T16:40:09.320Z,98.20
2019-02-14T16:42:39.920Z,98.20
2019-02-14T16:45:10.818Z,98.20
2019-02-14T16:47:41.973Z,98.20
2019-02-14T16:50:13.111Z,98.30
2019-02-14T16:52:44.162Z,98.30
2019-02-14T16:55:14.716Z,98.30
2019-02-14T16:57:45.835Z,98.30
2019-02-14T17:00:18.875Z,98.30
2019-02-14T17:02:48.966Z,98.70
2019-02-14T17:05:20.029Z,98.40
2019-02-14T17:07:51.171Z,98.50
2019-02-14T17:10:21.930Z,98.40
2019-02-14T17:12:52.616Z,98.40
2019-02-14T17:15:23.823Z,98.40
2019-02-14T17:17:54.649Z,98.40
2019-02-14T17:20:25.914Z,98.40
2019-02-14T17:22:57.092Z,98.50
2019-02-14T17:25:27.763Z,98.50
2019-02-14T17:27:58.625Z,98.50
2019-02-14T17:30:29.221Z,98.50
2019-02-14T17:33:02.971Z,98.50
2019-02-14T17:35:33.669Z,98.40
2019-02-14T17:38:04.358Z,98.50
2019-02-14T17:40:35.122Z,98.50
2019-02-14T17:43:05.809Z,98.50
2019-02-14T17:45:36.846Z,98.50
2019-02-14T17:48:07.635Z,98.50
2019-02-14T17:50:38.703Z,98.40
2019-02-14T17:53:09.697Z,98.60
2019-02-14T17:55:40.072Z,98.50
2019-02-14T17:58:10.721Z,98.50
2019-02-14T18:00:42.560Z,98.50
2019-02-14T18:03:13.356Z,98.60
2019-02-14T18:05:44.330Z,98.60
2019-02-14T18:08:14.855Z,98.60
2019-02-14T18:10:45.644Z,98.60
2019-02-14T18:13:17.874Z,98.60
2019-02-14T18:15:48.771Z,98.60
2019-02-14T18:18:19.446Z,98.60
2019-02-14T18:20:50.043Z,98.70
2019-02-14T18:23:21.363Z,98.60
2019-02-14T18:25:52.053Z,98.60
2019-02-14T18:28:22.591Z,98.60
2019-02-14T18:30:53.175Z,98.60
2019-02-14T18:33:23.855Z,98.60
2019-02-14T18:35:55.318Z,98.70
2019-02-14T18:38:26.073Z,98.70
2019-02-14T18:41:03.909Z,98.70
2019-02-14T18:43:29.566Z,98.70
2019-02-14T18:46:00.784Z,98.60
2019-02-14T18:48:32.026Z,98.60
2019-02-14T18:51:02.495Z,98.60
2019-02-14T18:53:33.262Z,98.60
2019-02-14T18:56:04.131Z,98.80
2019-02-14T18:58:34.828Z,98.70
2019-02-14T19:01:05.898Z,98.70
2019-02-14T19:03:36.492Z,98.70
2019-02-14T19:06:07.232Z,98.70
2019-02-14T19:08:38.070Z,98.90
2019-02-14T19:11:15.079Z,98.70
2019-02-14T19:13:41.421Z,98.30
2019-02-14T19:16:12.176Z,97.90
2019-02-14T19:18:43.301Z,97.70
2019-02-14T19:21:14.016Z,97.50
2019-02-14T19:23:44.665Z,97.30
2019-02-14T19:26:15.827Z,97.30
2019-02-14T19:28:46.763Z,97.30
2019-02-14T19:31:17.777Z,97.10
2019-02-14T19:33:48.583Z,97.00
2019-02-14T19:36:18.963Z,96.90
2019-02-14T19:38:49.979Z,97.00
2019-02-14T19:41:25.430Z,97.10
2019-02-14T19:43:53.365Z,96.90
2019-02-14T19:46:24.058Z,96.90
2019-02-14T19:48:54.452Z,96.90
2019-02-14T19:51:25.165Z,96.90
2019-02-14T19:53:56.109Z,96.80
2019-02-14T19:56:26.899Z,96.90
2019-02-14T19:58:57.681Z,96.80
2019-02-14T20:01:28.351Z,96.90
2019-02-14T20:03:59.092Z,96.70
2019-02-14T20:06:29.792Z,96.70
2019-02-14T20:09:00.554Z,96.70
2019-02-14T20:11:36.520Z,96.70
2019-02-14T20:14:03.804Z,96.60
2019-02-14T20:16:34.645Z,96.70
2019-02-14T20:19:05.814Z,96.70
2019-02-14T20:21:36.663Z,96.80
2019-02-14T20:24:07.718Z,96.80
2019-02-14T20:26:38.419Z,96.80
2019-02-14T20:29:09.205Z,97.00
2019-02-14T20:31:39.995Z,96.70
2019-02-14T20:34:10.608Z,96.70
2019-02-14T20:36:41.429Z,96.80
2019-02-14T20:39:12.293Z,96.80
2019-02-14T20:41:46.035Z,96.70
2019-02-14T20:44:15.400Z,96.70
2019-02-14T20:46:47.818Z,96.70
2019-02-14T20:49:18.585Z,96.70
2019-02-14T20:51:49.240Z,96.80
2019-02-14T20:54:19.689Z,96.80
2019-02-14T20:56:50.360Z,96.80
2019-02-14T20:59:20.956Z,96.70
2019-02-14T21:01:51.965Z,96.70
2019-02-14T21:04:22.540Z,96.80
2019-02-14T21:06:56.134Z,96.70
2019-02-14T21:09:27.000Z,96.70
2019-02-14T21:11:57.589Z,96.70
2019-02-14T21:14:28.254Z,96.80
2019-02-14T21:16:58.944Z,96.80
2019-02-14T21:19:29.519Z,96.80
2019-02-14T21:22:01.802Z,96.70
2019-02-14T21:24:32.743Z,96.70
2019-02-14T21:27:03.510Z,96.70
2019-02-14T21:29:34.305Z,96.70
2019-02-14T21:32:05.004Z,96.80
2019-02-14T21:34:35.763Z,96.80
2019-02-14T21:37:06.617Z,96.60
2019-02-14T21:39:37.782Z,96.70
2019-02-14T21:42:19.562Z,96.60
2019-02-14T21:44:40.703Z,96.80
2019-02-14T21:47:11.509Z,96.90
2019-02-14T21:49:42.393Z,96.60
2019-02-14T21:52:13.060Z,96.60
2019-02-14T21:54:43.737Z,96.60
2019-02-14T21:57:14.526Z,96.60
2019-02-14T21:59:45.272Z,96.60
2019-02-14T22:02:16.085Z,96.60
2019-02-14T22:04:46.777Z,96.60
2019-02-14T22:07:17.448Z,96.60
2019-02-14T22:09:48.200Z,96.60
2019-02-14T22:12:37.219Z,96.50
2019-02-14T22:14:50.858Z,96.60
2019-02-14T22:17:22.772Z,96.60
2019-02-14T22:19:53.524Z,96.60
2019-02-14T22:22:24.135Z,96.60
2019-02-14T22:24:54.787Z,96.60
2019-02-14T22:27:25.709Z,96.60
2019-02-14T22:29:56.310Z,96.70
2019-02-14T22:32:27.007Z,96.60
2019-02-14T22:34:59.626Z,96.50
2019-02-14T22:37:29.809Z,96.40
2019-02-14T22:40:00.494Z,96.40
2019-02-14T22:42:31.199Z,96.60
2019-02-14T22:45:02.064Z,96.70
2019-02-14T22:47:32.746Z,96.60
2019-02-14T22:50:03.432Z,96.60
2019-02-14T22:52:34.189Z,96.70
2019-02-14T22:55:06.603Z,96.80
2019-02-14T22:57:37.591Z,96.70
2019-02-14T23:00:24.231Z,96.60
2019-02-14T23:02:54.840Z,96.70
2019-02-14T23:05:25.333Z,96.60
2019-02-14T23:07:56.099Z,96.50
2019-02-14T23:10:27.237Z,96.60
2019-02-14T23:12:57.990Z,96.50
2019-02-14T23:15:28.900Z,96.50
2019-02-14T23:17:59.495Z,96.50
2019-02-14T23:20:30.207Z,96.50
2019-02-14T23:23:00.684Z,96.50
2019-02-14T23:25:31.615Z,96.50
2019-02-14T23:28:02.396Z,96.50
2019-02-14T23:30:33.157Z,96.50
2019-02-14T23:33:03.507Z,96.30
2019-02-14T23:35:34.173Z,96.40
2019-02-14T23:38:04.743Z,96.40
2019-02-14T23:40:35.333Z,96.30
2019-02-14T23:43:07.347Z,96.40
2019-02-14T23:45:38.140Z,96.20
2019-02-14T23:48:08.807Z,96.20
2019-02-14T23:50:39.411Z,96.10
2019-02-14T23:53:10.073Z,96.10
2019-02-14T23:55:40.373Z,96.30
2019-02-14T23:58:11.124Z,96.20
